createdAt,value
2022-11-18T00:01:25.933Z,10.55
2022-11-18T00:03:53.138Z,10.85
2022-11-18T00:06:23.080Z,10.85
2022-11-18T00:08:50.397Z,10.25
2022-11-18T00:11:39.352Z,12.13
2022-11-18T00:14:20.189Z,12.05
2022-11-18T00:16:59.528Z,9.90
2022-11-18T00:19:32.510Z,11.65
2022-11-18T00:21:59.470Z,10.95
2022-11-18T00:24:26.250Z,11.05
2022-11-18T00:26:53.522Z,10.18
2022-11-18T00:29:21.162Z,10.13
2022-11-18T00:31:48.612Z,11.45
2022-11-18T00:34:16.999Z,10.43
2022-11-18T00:36:44.770Z,11.52
2022-11-18T00:39:12.994Z,10.63
2022-11-18T00:41:58.632Z,10.38
2022-11-18T00:44:25.446Z,11.55
2022-11-18T00:46:52.134Z,12.02
2022-11-18T00:49:19.169Z,10.50
2022-11-18T00:51:46.211Z,11.90
2022-11-18T00:54:12.887Z,12.40
2022-11-18T00:56:39.575Z,11.75
2022-11-18T00:59:06.427Z,11.55
2022-11-18T01:01:33.527Z,12.13
2022-11-18T01:04:01.979Z,12.65
2022-11-18T01:06:29.371Z,11.27
2022-11-18T01:08:56.058Z,11.13
2022-11-18T01:11:41.211Z,11.07
2022-11-18T01:14:07.972Z,10.55
2022-11-18T01:16:34.691Z,12.30
2022-11-18T01:19:01.401Z,11.43
2022-11-18T01:21:29.703Z,9.98
2022-11-18T01:23:56.455Z,10.80
2022-11-18T01:26:23.157Z,9.88
2022-11-18T01:28:49.908Z,11.00
2022-11-18T01:31:19.153Z,10.40
2022-11-18T01:33:46.736Z,10.52
2022-11-18T01:36:23.219Z,11.50
2022-11-18T01:38:50.839Z,11.23
2022-11-18T01:41:19.725Z,10.82
2022-11-18T01:43:52.694Z,10.98
2022-11-18T01:46:20.638Z,11.68
2022-11-18T01:48:52.589Z,10.98
2022-11-18T01:51:33.373Z,12.40
2022-11-18T01:54:05.634Z,11.20
2022-11-18T01:56:40.272Z,11.50
2022-11-18T01:59:11.803Z,12.00
2022-11-18T02:01:38.814Z,13.02
2022-11-18T02:04:07.199Z,10.80
2022-11-18T02:06:34.520Z,10.50
2022-11-18T02:09:02.086Z,11.50
2022-11-18T02:11:48.394Z,12.15
2022-11-18T02:14:43.323Z,11.82
2022-11-18T02:17:18.955Z,13.00
2022-11-18T02:20:12.189Z,12.13
2022-11-18T02:23:02.968Z,11.45
2022-11-18T02:25:58.740Z,12.07
2022-11-18T02:28:47.757Z,12.35
2022-11-18T02:31:40.915Z,11.20
2022-11-18T02:34:07.605Z,11.45
2022-11-18T02:36:43.975Z,11.82
2022-11-18T02:39:19.805Z,12.63
2022-11-18T02:41:49.266Z,11.60
2022-11-18T02:44:18.981Z,11.57
2022-11-18T02:46:52.231Z,12.35
2022-11-18T02:49:28.849Z,10.98
2022-11-18T02:51:58.026Z,11.18
2022-11-18T02:54:26.385Z,11.80
2022-11-18T02:56:53.881Z,11.05
2022-11-18T02:59:20.990Z,11.20
2022-11-18T03:01:48.226Z,11.35
2022-11-18T03:04:17.409Z,11.18
2022-11-18T03:06:53.518Z,11.48
2022-11-18T03:09:36.543Z,11.73
2022-11-18T03:12:21.298Z,12.07
2022-11-18T03:15:36.367Z,11.27
2022-11-18T03:18:18.585Z,12.10
2022-11-18T03:23:25.585Z,10.88
2022-11-18T03:26:20.686Z,12.80
2022-11-18T03:28:56.570Z,12.35
2022-11-18T03:31:58.390Z,12.30
2022-11-18T03:35:03.538Z,13.27
2022-11-18T03:37:33.838Z,12.30
2022-11-18T03:40:11.750Z,13.18
2022-11-18T03:42:45.027Z,12.93
2022-11-18T03:45:21.354Z,14.38
2022-11-18T03:47:58.247Z,12.48
2022-11-18T03:50:32.021Z,13.15
2022-11-18T03:53:01.786Z,14.02
2022-11-18T03:55:34.137Z,13.50
2022-11-18T03:58:07.314Z,12.93
2022-11-18T04:00:42.998Z,12.45
2022-11-18T04:03:11.041Z,14.20
2022-11-18T04:05:41.569Z,13.57
2022-11-18T04:08:19.493Z,14.95
2022-11-18T04:10:52.475Z,14.20
2022-11-18T04:13:24.338Z,15.80
2022-11-18T04:15:53.630Z,13.75
2022-11-18T04:18:20.747Z,13.80
2022-11-18T04:20:47.756Z,13.90
2022-11-18T04:23:14.540Z,13.60
2022-11-18T04:25:41.386Z,13.50
2022-11-18T04:28:08.926Z,13.05
2022-11-18T04:30:35.755Z,13.32
2022-11-18T04:33:02.706Z,13.82
2022-11-18T04:35:29.454Z,13.95
2022-11-18T04:37:56.161Z,12.32
2022-11-18T04:40:22.910Z,12.68
2022-11-18T04:42:49.576Z,13.20
2022-11-18T04:45:16.286Z,12.13
2022-11-18T04:47:43.035Z,13.43
2022-11-18T04:50:10.092Z,11.80
2022-11-18T04:52:36.794Z,12.15
2022-11-18T04:55:03.811Z,13.25
2022-11-18T04:57:30.533Z,11.88
2022-11-18T04:59:57.250Z,12.07
2022-11-18T05:02:23.955Z,11.43
2022-11-18T05:04:50.643Z,12.30
2022-11-18T05:07:17.476Z,11.40
2022-11-18T05:09:44.331Z,10.85
2022-11-18T05:12:33.903Z,11.02
2022-11-18T05:15:01.471Z,9.82
2022-11-18T05:17:28.201Z,9.45
2022-11-18T05:19:55.021Z,9.07
2022-11-18T05:22:21.747Z,8.98
2022-11-18T05:24:48.850Z,9.63
2022-11-18T05:27:16.381Z,8.55
2022-11-18T05:29:43.583Z,8.98
2022-11-18T05:32:10.586Z,9.20
2022-11-18T05:34:37.317Z,8.77
2022-11-18T05:37:04.065Z,9.82
2022-11-18T05:39:33.133Z,9.60
2022-11-18T05:42:18.697Z,9.18
2022-11-18T05:44:46.037Z,9.95
2022-11-18T05:47:12.880Z,9.63
2022-11-18T05:49:39.604Z,10.18
2022-11-18T05:52:06.327Z,9.20
2022-11-18T05:54:33.053Z,10.60
2022-11-18T05:56:59.812Z,8.15
2022-11-18T05:59:26.568Z,10.05
2022-11-18T06:01:56.007Z,8.68
2022-11-18T06:04:40.763Z,8.43
2022-11-18T06:07:16.398Z,10.57
2022-11-18T06:09:47.264Z,8.68
2022-11-18T06:12:18.417Z,9.13
2022-11-18T06:14:50.750Z,9.40
2022-11-18T06:17:24.462Z,8.23
2022-11-18T06:19:52.273Z,8.65
2022-11-18T06:22:19.448Z,8.73
2022-11-18T06:24:46.188Z,7.78
2022-11-18T06:27:14.433Z,8.48
2022-11-18T06:29:41.165Z,9.48
2022-11-18T06:32:07.966Z,8.77
2022-11-18T06:34:40.955Z,8.30
2022-11-18T06:37:16.415Z,9.07
2022-11-18T06:39:43.533Z,8.77
2022-11-18T06:42:10.551Z,9.38
2022-11-18T06:44:37.373Z,8.38
2022-11-18T06:47:05.313Z,8.00
2022-11-18T06:49:32.049Z,8.60
2022-11-18T06:51:58.768Z,7.72
2022-11-18T06:54:25.488Z,7.68
2022-11-18T06:56:52.262Z,7.50
2022-11-18T06:59:23.477Z,8.13
2022-11-18T07:01:51.084Z,7.40
2022-11-18T07:04:17.847Z,6.55
2022-11-18T07:06:44.566Z,8.00
2022-11-18T07:09:11.285Z,7.25
2022-11-18T07:11:40.404Z,6.80
2022-11-18T07:14:08.628Z,7.32
2022-11-18T07:16:36.561Z,6.47
2022-11-18T07:19:09.046Z,7.22
2022-11-18T07:21:35.755Z,5.65
2022-11-18T07:24:05.811Z,6.90
2022-11-18T07:26:32.756Z,6.35
2022-11-18T07:28:59.604Z,6.78
2022-11-18T07:31:26.335Z,6.53
2022-11-18T07:33:55.795Z,6.25
2022-11-18T07:36:25.472Z,6.70
2022-11-18T07:38:53.662Z,5.57
2022-11-18T07:41:26.506Z,5.53
2022-11-18T07:44:00.312Z,5.53
2022-11-18T07:46:36.249Z,5.80
2022-11-18T07:49:06.028Z,5.82
2022-11-18T07:51:35.539Z,6.45
2022-11-18T07:54:06.744Z,5.88
2022-11-18T07:56:33.484Z,6.63
2022-11-18T07:59:00.173Z,5.80
2022-11-18T08:01:31.037Z,6.32
2022-11-18T08:04:04.008Z,7.35
2022-11-18T08:06:33.109Z,6.50
2022-11-18T08:08:59.941Z,6.30
2022-11-18T08:11:26.727Z,6.63
2022-11-18T08:13:53.814Z,6.25
2022-11-18T08:16:23.785Z,6.50
2022-11-18T08:18:50.813Z,6.72
2022-11-18T08:21:19.935Z,6.70
2022-11-18T08:23:55.862Z,6.82
2022-11-18T08:26:23.206Z,6.53
2022-11-18T08:28:50.437Z,7.13
2022-11-18T08:31:25.606Z,6.88
2022-11-18T08:34:05.324Z,6.10
2022-11-18T08:36:34.954Z,6.80
2022-11-18T08:39:04.103Z,6.75
2022-11-18T08:41:39.533Z,6.90
2022-11-18T08:44:07.712Z,7.05
2022-11-18T08:46:34.461Z,7.30
2022-11-18T08:49:01.493Z,8.60
2022-11-18T08:51:28.620Z,8.45
2022-11-18T08:53:55.508Z,8.30
2022-11-18T08:56:24.323Z,8.68
2022-11-18T08:58:51.529Z,8.18
2022-11-18T09:01:18.554Z,9.05
2022-11-18T09:03:45.693Z,8.15
2022-11-18T09:06:15.763Z,8.80
2022-11-18T09:08:43.162Z,10.23
2022-11-18T09:11:15.451Z,10.43
2022-11-18T09:16:31.589Z,11.40
2022-11-18T09:19:04.904Z,9.55
2022-11-18T09:21:40.954Z,9.20
2022-11-18T09:24:08.973Z,9.65
2022-11-18T09:26:35.698Z,8.52
2022-11-18T09:29:02.448Z,9.02
2022-11-18T09:31:29.313Z,10.13
2022-11-18T09:33:56.006Z,8.98
2022-11-18T09:36:25.163Z,8.35
2022-11-18T09:38:53.481Z,9.57
2022-11-18T09:41:41.635Z,8.82
2022-11-18T09:44:23.038Z,9.20
2022-11-18T09:47:01.909Z,9.50
2022-11-18T09:49:40.539Z,9.98
2022-11-18T09:52:19.286Z,9.68
2022-11-18T09:54:46.759Z,8.93
2022-11-18T09:57:17.082Z,9.77
2022-11-18T09:59:44.683Z,9.20
2022-11-18T10:02:23.271Z,9.57
2022-11-18T10:04:51.319Z,9.07
2022-11-18T10:07:26.324Z,8.82
2022-11-18T10:09:56.675Z,9.10
2022-11-18T10:12:23.373Z,9.23
2022-11-18T10:15:02.321Z,9.82
2022-11-18T10:17:45.635Z,10.48
2022-11-18T10:20:28.914Z,9.25
2022-11-18T10:23:13.902Z,10.25
2022-11-18T10:25:40.713Z,9.45
2022-11-18T10:28:22.050Z,9.80
2022-11-18T10:30:49.350Z,9.50
2022-11-18T10:33:19.713Z,9.48
2022-11-18T10:35:46.503Z,9.63
2022-11-18T10:38:13.158Z,9.70
2022-11-18T10:41:02.364Z,9.18
2022-11-18T10:43:51.613Z,10.00
2022-11-18T10:46:26.582Z,10.73
2022-11-18T10:49:16.420Z,9.70
2022-11-18T10:52:03.785Z,9.63
2022-11-18T10:54:30.451Z,9.43
2022-11-18T10:57:01.837Z,9.32
2022-11-18T10:59:41.836Z,9.30
2022-11-18T11:02:17.409Z,10.63
2022-11-18T11:04:46.059Z,10.82
2022-11-18T11:07:37.620Z,8.93
2022-11-18T11:10:10.136Z,9.50
2022-11-18T11:12:47.034Z,9.27
2022-11-18T11:15:19.390Z,9.70
2022-11-18T11:18:12.240Z,9.38
2022-11-18T11:20:39.263Z,8.43
2022-11-18T11:23:18.999Z,8.73
2022-11-18T11:28:55.635Z,8.70
2022-11-18T11:31:46.636Z,9.73
2022-11-18T11:34:25.412Z,9.50
2022-11-18T11:37:14.318Z,9.13
2022-11-18T11:40:05.113Z,9.25
2022-11-18T11:42:53.843Z,8.40
2022-11-18T11:45:58.234Z,10.13
2022-11-18T11:48:44.361Z,10.63
2022-11-18T11:51:31.300Z,9.63
2022-11-18T11:54:06.875Z,9.88
2022-11-18T11:57:30.635Z,8.88
2022-11-18T12:00:05.726Z,9.98
2022-11-18T12:02:53.438Z,9.85
2022-11-18T12:05:35.977Z,9.77
2022-11-18T12:08:21.078Z,9.43
2022-11-18T12:10:51.085Z,9.18
2022-11-18T12:13:22.032Z,9.18
2022-11-18T12:16:07.021Z,9.80
2022-11-18T12:18:42.367Z,10.75
2022-11-18T12:21:09.326Z,10.23
2022-11-18T12:23:36.074Z,8.23
2022-11-18T12:26:09.104Z,9.18
2022-11-18T12:28:41.627Z,9.77
2022-11-18T12:31:20.613Z,8.63
2022-11-18T12:33:54.918Z,8.82
2022-11-18T12:36:42.374Z,10.65
2022-11-18T12:39:27.588Z,9.15
2022-11-18T12:42:14.365Z,10.70
2022-11-18T12:44:42.347Z,10.55
2022-11-18T12:47:10.763Z,9.82
2022-11-18T12:49:37.428Z,11.00
2022-11-18T12:52:25.703Z,11.57
2022-11-18T12:54:52.754Z,10.18
2022-11-18T12:57:21.748Z,10.50
2022-11-18T12:59:48.803Z,10.10
2022-11-18T13:02:22.647Z,10.23
2022-11-18T13:05:10.031Z,11.18
2022-11-18T13:08:09.827Z,10.27
2022-11-18T13:10:45.910Z,9.70
2022-11-18T13:13:21.675Z,9.43
2022-11-18T13:16:09.619Z,10.45
2022-11-18T13:18:49.039Z,9.88
2022-11-18T13:21:42.361Z,10.35
2022-11-18T13:24:13.125Z,10.07
2022-11-18T13:26:42.743Z,9.38
2022-11-18T13:29:26.494Z,8.60
2022-11-18T13:32:11.905Z,9.27
2022-11-18T13:34:53.361Z,7.68
2022-11-18T13:37:26.169Z,9.23
2022-11-18T13:39:53.662Z,9.38
2022-11-18T13:42:24.923Z,9.45
2022-11-18T13:44:55.417Z,9.45
2022-11-18T13:47:48.000Z,10.18
2022-11-18T13:50:24.369Z,8.80
2022-11-18T13:53:03.595Z,9.02
2022-11-18T13:55:41.382Z,9.48
2022-11-18T13:58:26.270Z,9.95
2022-11-18T14:01:04.868Z,9.73
2022-11-18T14:03:52.048Z,8.63
2022-11-18T14:06:26.853Z,9.68
2022-11-18T14:09:07.136Z,8.32
2022-11-18T14:11:39.721Z,9.13
2022-11-18T14:14:07.681Z,8.65
2022-11-18T14:16:37.134Z,9.10
2022-11-18T14:19:04.307Z,8.18
2022-11-18T14:21:36.250Z,8.15
2022-11-18T14:24:03.896Z,9.75
2022-11-18T14:26:33.814Z,7.93
2022-11-18T14:29:14.516Z,8.02
2022-11-18T14:31:42.634Z,8.55
2022-11-18T14:34:23.918Z,7.85
2022-11-18T14:36:51.794Z,8.25
2022-11-18T14:39:27.680Z,7.47
2022-11-18T14:41:55.632Z,7.85
2022-11-18T14:44:24.469Z,8.55
2022-11-18T14:46:57.923Z,6.60
2022-11-18T14:49:26.806Z,6.88
2022-11-18T14:51:54.758Z,7.53
2022-11-18T14:54:28.002Z,7.82
2022-11-18T14:57:00.982Z,7.57
2022-11-18T14:59:27.711Z,8.48
2022-11-18T15:01:56.500Z,8.63
2022-11-18T15:04:23.635Z,9.32
2022-11-18T15:06:50.552Z,9.13
2022-11-18T15:09:17.355Z,8.45
2022-11-18T15:11:44.645Z,9.60
2022-11-18T15:14:11.487Z,9.20
2022-11-18T15:16:38.215Z,9.55
2022-11-18T15:19:06.235Z,10.27
2022-11-18T15:21:33.526Z,10.50
2022-11-18T15:24:00.233Z,10.95
2022-11-18T15:26:30.287Z,11.50
2022-11-18T15:28:57.776Z,11.05
2022-11-18T15:31:25.590Z,11.82
2022-11-18T15:33:52.767Z,11.98
2022-11-18T15:36:24.173Z,13.02
2022-11-18T15:38:52.180Z,12.35
2022-11-18T15:41:27.134Z,12.75
2022-11-18T15:43:55.667Z,11.50
2022-11-18T15:46:24.095Z,12.18
2022-11-18T15:48:55.596Z,11.90
2022-11-18T15:51:23.652Z,12.85
2022-11-18T15:53:50.667Z,12.45
2022-11-18T15:56:23.549Z,12.20
2022-11-18T15:59:01.895Z,13.30
2022-11-18T16:01:34.363Z,13.57
2022-11-18T16:04:01.893Z,13.30
2022-11-18T16:06:28.675Z,12.85
2022-11-18T16:08:59.640Z,12.50
2022-11-18T16:11:46.478Z,12.88
2022-11-18T16:14:14.995Z,13.70
2022-11-18T16:16:43.245Z,12.90
2022-11-18T16:19:12.174Z,15.48
2022-11-18T16:21:42.402Z,14.15
2022-11-18T16:24:13.158Z,13.43
2022-11-18T16:26:40.048Z,14.35
2022-11-18T16:29:07.693Z,13.20
2022-11-18T16:31:40.713Z,12.60
2022-11-18T16:34:25.644Z,11.70
2022-11-18T16:37:01.517Z,12.85
2022-11-18T16:39:29.230Z,13.95
2022-11-18T16:42:03.781Z,13.55
2022-11-18T16:44:35.166Z,12.23
2022-11-18T16:47:03.762Z,12.95
2022-11-18T16:49:32.594Z,11.52
2022-11-18T16:51:59.485Z,12.82
2022-11-18T16:54:30.999Z,10.95
2022-11-18T16:56:59.184Z,13.38
2022-11-18T16:59:30.749Z,12.20
2022-11-18T17:01:59.485Z,13.05
2022-11-18T17:04:28.330Z,12.25
2022-11-18T17:06:55.285Z,12.65
2022-11-18T17:09:24.282Z,12.70
2022-11-18T17:11:53.372Z,12.60
2022-11-18T17:14:20.463Z,12.55
2022-11-18T17:16:47.533Z,13.20
2022-11-18T17:19:21.797Z,12.98
2022-11-18T17:21:49.793Z,14.30
2022-11-18T17:24:20.193Z,12.82
2022-11-18T17:26:48.367Z,15.20
2022-11-18T17:29:15.287Z,12.20
2022-11-18T17:31:42.470Z,14.25
2022-11-18T17:34:14.018Z,15.63
2022-11-18T17:36:41.666Z,13.48
2022-11-18T17:39:10.886Z,15.63
2022-11-18T17:41:56.792Z,15.18
2022-11-18T17:44:24.501Z,15.25
2022-11-18T17:46:51.309Z,14.23
2022-11-18T17:49:19.302Z,15.35
2022-11-18T17:51:46.185Z,16.98
2022-11-18T17:54:14.259Z,17.33
2022-11-18T17:56:41.354Z,17.85
2022-11-18T17:59:08.309Z,16.33
2022-11-18T18:01:35.751Z,16.33
2022-11-18T18:04:03.038Z,17.60
2022-11-18T18:06:29.858Z,16.98
2022-11-18T18:08:57.748Z,16.90
2022-11-18T18:11:25.797Z,17.60
2022-11-18T18:14:11.422Z,16.88
2022-11-18T18:16:50.951Z,15.77
2022-11-18T18:19:20.248Z,16.55
2022-11-18T18:21:47.668Z,17.70
2022-11-18T18:24:17.233Z,18.30
2022-11-18T18:26:44.627Z,15.48
2022-11-18T18:29:12.432Z,19.10
2022-11-18T18:31:39.362Z,19.38
2022-11-18T18:34:06.114Z,18.48
2022-11-18T18:36:33.226Z,17.73
2022-11-18T18:39:00.913Z,19.20
2022-11-18T18:41:28.020Z,22.73
2022-11-18T18:43:54.864Z,20.95
2022-11-18T18:46:30.459Z,24.23
2022-11-18T18:49:27.308Z,20.25
2022-11-18T18:51:56.172Z,18.83
2022-11-18T18:54:23.096Z,21.20
2022-11-18T18:56:49.904Z,19.80
2022-11-18T18:59:16.786Z,20.25
2022-11-18T19:01:43.611Z,20.35
2022-11-18T19:04:13.012Z,23.10
2022-11-18T19:06:59.834Z,19.63
2022-11-18T19:09:27.305Z,17.55
2022-11-18T19:12:13.582Z,18.90
2022-11-18T19:14:40.406Z,24.65
2022-11-18T19:20:12.682Z,22.33
2022-11-18T19:22:39.339Z,21.15
2022-11-18T19:25:06.376Z,19.48
2022-11-18T19:27:36.273Z,18.58
2022-11-18T19:30:03.098Z,19.65
2022-11-18T19:32:29.805Z,19.30
2022-11-18T19:34:56.558Z,18.65
2022-11-18T19:37:23.242Z,20.08
2022-11-18T19:39:49.927Z,19.25
2022-11-18T19:42:16.666Z,20.30
2022-11-18T19:44:43.320Z,20.80
2022-11-18T19:47:10.101Z,18.83
2022-11-18T19:49:36.855Z,19.88
2022-11-18T19:52:03.678Z,17.42
2022-11-18T19:54:30.441Z,22.55
2022-11-18T19:56:57.481Z,19.83
2022-11-18T19:59:24.166Z,19.65
2022-11-18T20:01:50.895Z,18.83
2022-11-18T20:04:17.708Z,17.13
2022-11-18T20:06:45.546Z,21.75
2022-11-18T20:09:12.951Z,20.83
2022-11-18T20:11:39.861Z,18.83
2022-11-18T20:14:08.231Z,18.85
2022-11-18T20:16:37.021Z,19.55
2022-11-18T20:19:10.556Z,20.25
2022-11-18T20:21:39.079Z,18.48
2022-11-18T20:24:07.216Z,19.40
2022-11-18T20:26:37.442Z,18.77
2022-11-18T20:29:05.753Z,21.77
2022-11-18T20:31:36.047Z,22.95
2022-11-18T20:34:04.092Z,19.40
2022-11-18T20:36:33.228Z,18.95
2022-11-18T20:39:11.261Z,16.75
2022-11-18T20:41:38.000Z,18.33
2022-11-18T20:44:04.987Z,18.73
2022-11-18T20:46:33.153Z,19.17
2022-11-18T20:49:00.162Z,18.95
2022-11-18T20:51:28.332Z,20.90
2022-11-18T20:53:56.102Z,19.92
2022-11-18T20:56:25.436Z,18.63
2022-11-18T20:58:52.729Z,19.95
2022-11-18T21:01:28.252Z,17.92
2022-11-18T21:03:57.848Z,20.30
2022-11-18T21:06:27.313Z,19.85
2022-11-18T21:08:59.641Z,19.65
2022-11-18T21:11:27.151Z,19.23
2022-11-18T21:14:15.098Z,17.98
2022-11-18T21:16:44.903Z,23.45
2022-11-18T21:19:12.159Z,22.00
2022-11-18T21:21:45.209Z,21.67
2022-11-18T21:24:17.514Z,20.58
2022-11-18T21:26:45.995Z,20.17
2022-11-18T21:29:14.282Z,19.25
2022-11-18T21:31:41.567Z,19.13
2022-11-18T21:34:09.044Z,19.98
2022-11-18T21:36:38.921Z,20.20
2022-11-18T21:39:10.482Z,17.92
2022-11-18T21:41:37.255Z,19.88
2022-11-18T21:44:06.275Z,19.50
2022-11-18T21:46:35.154Z,17.90
2022-11-18T21:49:02.533Z,18.55
2022-11-18T21:51:31.302Z,18.33
2022-11-18T21:53:59.051Z,16.27
2022-11-18T21:56:33.201Z,19.73
2022-11-18T21:59:02.188Z,20.77
2022-11-18T22:01:31.785Z,19.75
2022-11-18T22:04:00.264Z,16.92
2022-11-18T22:06:32.584Z,21.00
2022-11-18T22:09:00.299Z,17.98
2022-11-18T22:11:28.079Z,18.05
2022-11-18T22:13:55.048Z,18.80
2022-11-18T22:16:23.587Z,16.98
2022-11-18T22:18:57.307Z,18.73
2022-11-18T22:21:26.487Z,17.75
2022-11-18T22:23:56.904Z,17.88
2022-11-18T22:26:23.633Z,19.00
2022-11-18T22:28:56.013Z,17.92
2022-11-18T22:31:23.952Z,18.55
2022-11-18T22:33:51.639Z,17.92
2022-11-18T22:36:20.566Z,18.40
2022-11-18T22:38:47.597Z,20.30
2022-11-18T22:41:38.371Z,18.00
2022-11-18T22:44:08.055Z,18.08
2022-11-18T22:46:36.601Z,17.58
2022-11-18T22:49:03.619Z,16.65
2022-11-18T22:51:30.309Z,18.15
2022-11-18T22:54:22.780Z,18.58
2022-11-18T22:56:43.865Z,16.65
2022-11-18T22:59:12.254Z,17.38
2022-11-18T23:01:39.273Z,16.40
2022-11-18T23:04:06.490Z,17.15
2022-11-18T23:06:33.450Z,15.38
2022-11-18T23:09:00.285Z,15.77
2022-11-18T23:11:46.025Z,15.55
2022-11-18T23:14:12.679Z,15.43
2022-11-18T23:16:41.715Z,16.35
2022-11-18T23:19:10.663Z,18.20
2022-11-18T23:21:37.983Z,14.57
2022-11-18T23:24:05.138Z,15.30
2022-11-18T23:26:32.113Z,16.40
2022-11-18T23:28:59.067Z,14.95
2022-11-18T23:31:27.478Z,13.50
2022-11-18T23:33:57.191Z,15.57
2022-11-18T23:36:25.217Z,18.33
2022-11-18T23:38:52.762Z,15.45
2022-11-18T23:41:20.184Z,15.00
2022-11-18T23:43:48.366Z,14.80
2022-11-18T23:46:16.960Z,16.42
2022-11-18T23:48:44.372Z,13.38
2022-11-18T23:51:12.399Z,15.65
2022-11-18T23:53:39.979Z,15.77
2022-11-18T23:56:15.493Z,15.35
2022-11-18T23:58:48.047Z,15.93
